Airfield :
LOGIN :

Register | Disclaimer

   EN    FR    IT 

 










Legend :    VFR   Marginal VFR   IFR   Intensive IFR   Very Intensive IFR
Visi :
Ceiling :
>= 8 km
>= 3000ft
5 to 8 km
1000 to 3000 ft
1500m to 5 km
500 to 1000 ft
800 to 1500m
200 to 500 ft
< 800m
< 200 ft
Symbols :   Thunderstorms  Fog  Heavy snow  Heavy precipitations  Wind > 20 kt
SIGMETs :     Misc.  Thunderstorms  Icing  Turbulence  Mountain Waves  Volcanic Ashes






- Airport Elevation : 1822 ft


ETSL - Lechfeld AB

CURRENT METAR :
  • 290620Z 23002KT 3500 -RADZ BR SCT005 OVC010 05/05 Q1014 YLO

EXPIRED METARs :
  • 290520Z 19003KT 6000 -RADZ BKN007 05/05 Q1014 GRN
  • 290435Z 18004KT 8000 -RADZ BKN007 05/04 Q1013 GRN
  • 290420Z 19004KT 8000 -RA SCT008 BKN020 05/04 Q1013 WHT

Expired Forecast.



MET'MAP, your aeronautical weather chart ! - Copyright ORBIFLY December 2007 - Disclaimer

ORBIFLY MET'MAP TEAM :

Programming & Development : Alexandra Zaïnal
Original concept : Baudouin d'Aumeries
Technical & hardware support : Manuel Goepfert
Assistance : Marc-Olivier Méhu




SOURCES & CREDITS :

   NOAA